Time;durP1;ratioP1;P1;durP2;ratioP2;P2;SDS_P1;SDS_P2;PMS_P1;PMS_P2;Temp;Humidity;BMP_temperature;BMP_pressure;BME280_temperature;BME280_humidity;BME280_pressure;Samples;Min_cycle;Max_cycle;Signal;HPM_P1;HPM_P2
2022/07/28 00:01:01;;;;;;;1.40;0.90;;;;;;;16.04;63.22;101139.03;7400291;19;20023;-53
2022/07/28 00:03:49;;;;;;;0.85;0.85;;;;;;;16.02;63.31;101142.16;7405949;19;20463;-50
2022/07/28 00:06:36;;;;;;;2.28;1.17;;;;;;;16.01;63.26;101146.16;7400262;19;20078;-52
2022/07/28 00:09:25;;;;;;;1.98;1.00;;;;;;;15.99;63.70;101148.50;7401070;19;20021;-51
2022/07/28 00:12:14;;;;;;;1.75;0.73;;;;;;;16.01;63.52;101150.94;7401314;19;20014;-58
2022/07/28 00:15:03;;;;;;;1.00;0.70;;;;;;;16.01;63.36;101142.56;7400587;19;20014;-50
2022/07/28 00:17:51;;;;;;;0.82;0.77;;;;;;;15.99;63.54;101142.91;7401500;19;20014;-53
2022/07/28 00:20:38;;;;;;;1.27;0.82;;;;;;;15.98;63.69;101146.91;7398311;19;20015;-52
2022/07/28 00:23:27;;;;;;;1.50;1.00;;;;;;;15.95;63.75;101147.63;7396638;19;20010;-52
2022/07/28 00:26:26;;;;;;;2.95;1.00;;;;;;;15.95;63.91;101147.63;7400939;19;20023;-51
2022/07/28 00:29:13;;;;;;;0.80;0.70;;;;;;;15.95;63.78;101139.25;7403027;19;20034;-48
2022/07/28 00:32:06;;;;;;;1.17;0.80;;;;;;;15.94;64.23;101134.84;7394311;19;20070;-53
2022/07/28 00:34:53;;;;;;;0.70;0.63;;;;;;;15.94;64.30;101139.66;7399850;19;20002;-51
2022/07/28 00:37:41;;;;;;;1.00;0.60;;;;;;;15.92;63.96;101139.19;7402053;19;20010;-53
2022/07/28 00:43:42;;;;;;;1.60;0.63;;;;;;;15.90;64.42;101135.97;7400629;19;20014;-52
2022/07/28 00:46:10;;;;;;;0.70;0.70;;;;;;;15.91;64.42;101134.81;7397255;19;20006;-53
2022/07/28 00:48:39;;;;;;;1.77;0.80;;;;;;;15.91;64.79;101134.81;7376559;19;20029;-56
2022/07/28 00:51:10;;;;;;;2.20;0.77;;;;;;;15.90;64.44;101128.41;7345848;19;20512;-53
2022/07/28 00:53:39;;;;;;;1.63;1.02;;;;;;;15.87;64.90;101123.56;7347984;19;20007;-52
2022/07/28 00:56:07;;;;;;;3.28;0.80;;;;;;;15.88;65.05;101132.75;7348670;19;20014;-53
2022/07/28 00:58:35;;;;;;;2.40;0.77;;;;;;;15.85;64.89;101137.09;7348473;19;20126;-56
2022/07/28 01:01:08;;;;;;;0.75;0.65;;;;;;;15.84;65.09;101127.09;7346522;19;21278;-53
2022/07/28 01:03:39;;;;;;;0.50;0.50;;;;;;;15.84;64.92;101129.88;7344853;19;20070;-54
2022/07/28 01:06:06;;;;;;;1.00;0.60;;;;;;;15.84;64.87;101125.09;7344654;19;20085;-55
2022/07/28 01:08:49;;;;;;;0.70;0.60;;;;;;;15.80;65.34;101127.03;7344140;19;20011;-54
2022/07/28 01:11:30;;;;;;;0.70;0.68;;;;;;;15.77;65.24;101125.00;7345889;19;20093;-53
2022/07/28 01:13:58;;;;;;;2.22;0.68;;;;;;;15.80;64.99;101120.66;7347835;19;20014;-53
2022/07/28 01:16:53;;;;;;;2.58;0.60;;;;;;;15.78;65.18;101109.03;7347547;19;20038;-50
2022/07/28 01:19:49;;;;;;;3.10;0.73;;;;;;;15.76;65.19;101116.97;7346265;19;21183;-56
2022/07/28 01:22:57;;;;;;;0.52;0.52;;;;;;;15.72;65.48;101104.94;7355649;19;20022;-48
2022/07/28 01:26:05;;;;;;;0.75;0.73;;;;;;;15.72;64.83;101111.34;7397752;19;20014;-51
2022/07/28 01:29:13;;;;;;;2.58;1.05;;;;;;;15.71;65.24;101111.69;7399409;19;20063;-49
2022/07/28 01:32:07;;;;;;;0.73;0.73;;;;;;;15.66;65.11;101100.84;7398392;19;20038;-51
2022/07/28 01:35:22;;;;;;;1.30;0.75;;;;;;;15.66;65.42;101104.44;7400645;19;20010;-52
2022/07/28 01:38:23;;;;;;;1.48;0.68;;;;;;;15.68;65.09;101101.25;7402653;19;20010;-49
2022/07/28 01:41:17;;;;;;;1.92;0.90;;;;;;;15.69;65.32;101100.09;7398050;19;20010;-51
2022/07/28 01:44:09;;;;;;;0.95;0.73;;;;;;;15.67;65.19;101094.09;7356419;19;20019;-51
2022/07/28 01:46:59;;;;;;;0.70;0.70;;;;;;;15.66;65.65;101090.47;7379540;19;20015;-52
2022/07/28 01:49:49;;;;;;;0.63;0.50;;;;;;;15.64;65.43;101092.03;7400967;19;20007;-51
2022/07/28 01:52:40;;;;;;;1.40;0.60;;;;;;;15.62;65.52;101092.38;7344651;19;20408;-56
2022/07/28 01:55:29;;;;;;;1.77;0.47;;;;;;;15.63;65.60;101087.63;7345296;19;21348;-54
2022/07/28 01:58:20;;;;;;;0.50;0.50;;;;;;;15.61;65.58;101088.00;7344665;19;20030;-55
2022/07/28 02:00:51;;;;;;;1.13;0.55;;;;;;;15.61;65.78;101087.19;7343413;19;20380;-56
2022/07/28 02:03:22;;;;;;;1.77;0.52;;;;;;;15.57;65.88;101083.50;7341381;19;20061;-52
2022/07/28 02:05:52;;;;;;;1.85;0.70;;;;;;;15.58;66.22;101079.56;7345871;19;21226;-56
2022/07/28 02:08:22;;;;;;;1.17;0.70;;;;;;;15.58;66.13;101071.19;7343572;19;20015;-56
2022/07/28 02:13:41;;;;;;;0.60;0.60;;;;;;;15.59;66.43;101073.63;7346127;19;20011;-54
2022/07/28 02:16:12;;;;;;;3.35;0.80;;;;;;;15.58;66.28;101062.81;7347283;19;20006;-54
2022/07/28 02:18:44;;;;;;;0.93;0.70;;;;;;;15.60;66.39;101064.06;7350569;19;20784;-54
2022/07/28 02:21:14;;;;;;;1.13;0.65;;;;;;;15.60;66.29;101066.03;7349455;19;20372;-55
2022/07/28 02:23:46;;;;;;;1.45;0.70;;;;;;;15.58;66.59;101054.44;7349599;19;20202;-54
2022/07/28 02:26:16;;;;;;;0.70;0.50;;;;;;;15.58;66.35;101060.03;7349420;19;20030;-55
2022/07/28 02:28:51;;;;;;;1.17;0.65;;;;;;;15.56;66.48;101048.44;7391269;19;20471;-51
2022/07/28 02:31:27;;;;;;;1.88;0.55;;;;;;;15.54;66.92;101048.78;7404351;19;20006;-51
2022/07/28 02:33:59;;;;;;;0.77;0.77;;;;;;;15.55;66.76;101056.00;7405683;19;20040;-53
2022/07/28 02:36:36;;;;;;;2.35;0.77;;;;;;;15.55;66.58;101046.81;7404223;19;20010;-52
2022/07/28 02:39:11;;;;;;;0.82;0.70;;;;;;;15.54;66.92;101048.00;7407563;19;20010;-51
2022/07/28 02:41:41;;;;;;;2.78;0.88;;;;;;;15.54;66.62;101054.38;7402667;19;20363;-49
2022/07/28 02:44:20;;;;;;;0.98;0.77;;;;;;;15.50;67.21;101039.56;7365124;19;20522;-50
2022/07/28 02:46:52;;;;;;;2.85;0.82;;;;;;;15.51;66.76;101048.75;7368603;19;20038;-51
2022/07/28 02:49:28;;;;;;;2.58;0.68;;;;;;;15.50;67.01;101044.31;7404920;19;20019;-52
2022/07/28 02:51:58;;;;;;;0.63;0.63;;;;;;;15.48;67.11;101044.72;7400332;19;20014;-52
2022/07/28 02:54:29;;;;;;;1.95;0.77;;;;;;;15.52;67.14;101045.56;7403266;19;20396;-53
2022/07/28 02:56:58;;;;;;;0.93;0.90;;;;;;;15.50;66.85;101041.53;7403153;19;20024;-48
2022/07/28 02:59:27;;;;;;;1.08;0.65;;;;;;;15.48;67.17;101043.91;7375602;19;20013;-52
2022/07/28 03:01:55;;;;;;;0.60;0.60;;;;;;;15.47;66.93;101045.88;7348276;19;20010;-51
2022/07/28 03:07:13;;;;;;;1.98;0.80;;;;;;;15.43;67.42;101039.41;7349289;19;20003;-56
2022/07/28 03:09:45;;;;;;;1.80;1.08;;;;;;;15.45;67.54;101039.03;7350608;19;20017;-50
2022/07/28 03:12:14;;;;;;;1.65;0.55;;;;;;;15.46;67.48;101035.09;7349720;19;20386;-51
2022/07/28 03:14:41;;;;;;;0.65;0.52;;;;;;;15.43;67.50;101028.25;7349386;19;20014;-55
2022/07/28 03:17:09;;;;;;;1.75;0.88;;;;;;;15.42;67.57;101034.19;7348020;19;20112;-56
2022/07/28 03:19:37;;;;;;;0.75;0.60;;;;;;;15.41;67.15;101021.44;7347281;19;20043;-52
2022/07/28 03:22:05;;;;;;;1.20;0.90;;;;;;;15.40;67.30;101023.41;7347341;19;20021;-51
2022/07/28 03:24:41;;;;;;;1.38;0.52;;;;;;;15.39;67.52;101026.53;7349225;19;20052;-54
2022/07/28 03:27:24;;;;;;;0.90;0.60;;;;;;;15.35;67.61;101029.28;7350409;19;20077;-51
2022/07/28 03:30:23;;;;;;;2.08;0.98;;;;;;;15.35;67.54;101025.69;7344350;19;20752;-55
2022/07/28 03:32:57;;;;;;;1.38;0.70;;;;;;;15.33;67.89;101025.25;7349008;19;20010;-55
2022/07/28 03:35:25;;;;;;;1.42;0.80;;;;;;;15.33;67.76;101028.84;7348668;19;20014;-52
2022/07/28 03:38:10;;;;;;;1.60;1.05;;;;;;;15.30;67.66;101034.38;7352525;19;20018;-53
2022/07/28 03:40:38;;;;;;;3.17;1.15;;;;;;;15.31;67.48;101022.81;7350996;19;20615;-53
2022/07/28 03:43:14;;;;;;;1.40;0.90;;;;;;;15.32;67.62;101018.06;7348638;19;20111;-54
2022/07/28 03:45:43;;;;;;;1.15;0.98;;;;;;;15.33;67.51;101028.06;7348804;19;20026;-55
2022/07/28 03:48:15;;;;;;;1.17;0.60;;;;;;;15.34;67.50;101030.47;7368740;19;20464;-52
2022/07/28 03:50:42;;;;;;;2.53;1.67;;;;;;;15.34;67.71;101024.06;7402970;19;20011;-48
2022/07/28 03:53:23;;;;;;;1.35;0.52;;;;;;;15.31;68.37;101024.81;7403519;19;20014;-50
2022/07/28 03:55:52;;;;;;;1.90;0.65;;;;;;;15.35;68.12;101029.28;7403982;19;20006;-51
2022/07/28 03:58:24;;;;;;;2.25;0.90;;;;;;;15.36;68.19;101024.50;7403908;19;20034;-50
2022/07/28 04:00:56;;;;;;;2.63;0.80;;;;;;;15.36;67.76;101028.09;7398484;19;20499;-49
2022/07/28 04:03:24;;;;;;;1.42;0.85;;;;;;;15.37;67.95;101026.13;7352168;19;20499;-55
2022/07/28 04:06:11;;;;;;;0.75;0.68;;;;;;;15.38;67.77;101022.94;7348097;19;20031;-54
2022/07/28 04:08:47;;;;;;;0.80;0.80;;;;;;;15.39;68.10;101023.75;7348527;19;20358;-53
2022/07/28 04:11:14;;;;;;;0.88;0.70;;;;;;;15.40;67.92;101015.03;7349389;19;20857;-53
2022/07/28 04:13:42;;;;;;;2.80;0.98;;;;;;;15.39;68.36;101012.59;7385576;19;20017;-48
2022/07/28 04:16:09;;;;;;;1.02;0.90;;;;;;;15.37;68.00;101018.56;7387532;19;20366;-53
2022/07/28 04:18:37;;;;;;;1.65;1.10;;;;;;;15.36;67.97;101016.13;7346610;19;20015;-53
2022/07/28 04:21:06;;;;;;;0.80;0.80;;;;;;;15.36;68.02;101025.31;7349315;19;20018;-55
2022/07/28 04:23:34;;;;;;;2.00;0.70;;;;;;;15.36;68.05;101018.91;7345350;19;21257;-56
2022/07/28 04:26:04;;;;;;;2.17;0.70;;;;;;;15.34;67.93;101015.69;7349702;19;20138;-52
2022/07/28 04:28:32;;;;;;;3.53;0.80;;;;;;;15.33;68.03;101022.47;7348218;19;20010;-54
2022/07/28 04:31:02;;;;;;;1.85;0.90;;;;;;;15.31;67.62;101022.00;7347964;19;20105;-53
2022/07/28 04:33:30;;;;;;;1.70;0.88;;;;;;;15.27;67.91;101014.38;7345502;19;20014;-53
2022/07/28 04:36:00;;;;;;;1.55;0.68;;;;;;;15.23;67.73;101019.09;7347613;19;20029;-54
2022/07/28 04:38:27;;;;;;;1.58;0.63;;;;;;;15.21;67.66;101013.09;7346498;19;20064;-54
2022/07/28 04:40:56;;;;;;;0.95;0.60;;;;;;;15.16;67.84;101016.19;7346851;19;21635;-53
2022/07/28 04:43:23;;;;;;;2.72;0.68;;;;;;;15.11;68.30;101013.69;7347848;19;20047;-54
2022/07/28 04:45:51;;;;;;;0.80;0.70;;;;;;;15.07;67.99;101018.38;7362549;19;20088;-53
2022/07/28 04:48:22;;;;;;;1.27;0.80;;;;;;;15.03;68.22;101008.34;7399153;19;20476;-50
2022/07/28 04:50:57;;;;;;;1.13;0.63;;;;;;;15.05;67.95;101014.34;7400464;19;20034;-53
2022/07/28 04:53:28;;;;;;;0.70;0.70;;;;;;;15.04;68.10;101005.19;7401164;19;20035;-50
2022/07/28 04:55:56;;;;;;;2.65;1.00;;;;;;;15.05;68.37;101008.78;7399178;19;20010;-48
2022/07/28 04:58:23;;;;;;;0.77;0.60;;;;;;;15.04;68.35;101007.97;7399633;19;20021;-51
2022/07/28 05:00:51;;;;;;;2.17;0.55;;;;;;;15.03;67.77;101003.59;7395853;19;20328;-50
2022/07/28 05:03:19;;;;;;;1.27;0.68;;;;;;;15.02;67.91;100999.16;7399236;19;20002;-53
2022/07/28 06:04:14;;;;;;;2.28;0.70;;;;;;;15.14;67.10;101012.94;7345984;19;20029;-54
2022/07/28 06:07:14;;;;;;;0.90;0.40;;;;;;;15.19;67.30;101021.03;7346013;19;20021;-53
2022/07/28 06:10:04;;;;;;;0.80;0.50;;;;;;;15.24;67.29;101011.53;7346239;19;20044;-50
2022/07/28 06:12:56;;;;;;;0.68;0.52;;;;;;;15.26;67.18;101023.13;7347217;19;20032;-53
2022/07/28 06:15:46;;;;;;;1.08;0.60;;;;;;;15.24;66.98;101017.94;7355949;19;20014;-53
2022/07/28 06:18:34;;;;;;;2.60;0.68;;;;;;;15.27;66.61;101021.97;7398157;19;20326;-50
2022/07/28 06:21:28;;;;;;;2.70;0.73;;;;;;;15.29;66.24;101021.59;7399676;19;20411;-51
2022/07/28 06:24:19;;;;;;;1.15;0.77;;;;;;;15.27;66.39;101016.38;7383790;19;20437;-56
2022/07/28 06:27:09;;;;;;;0.98;0.55;;;;;;;15.26;65.91;101020.34;7342065;19;20478;-56
2022/07/28 06:30:05;;;;;;;1.15;0.70;;;;;;;15.27;66.02;101025.53;7344155;19;20011;-56
2022/07/28 06:32:34;;;;;;;1.83;0.40;;;;;;;15.28;65.87;101023.56;7338621;19;20017;-52
2022/07/28 06:35:02;;;;;;;1.75;0.60;;;;;;;15.32;65.53;101030.03;7339949;19;20476;-55
2022/07/28 06:37:30;;;;;;;3.40;0.60;;;;;;;15.38;65.56;101025.72;7344567;19;20006;-54
2022/07/28 06:39:57;;;;;;;1.98;0.60;;;;;;;15.41;65.23;101027.00;7340250;19;20025;-54
2022/07/28 06:42:25;;;;;;;2.63;0.60;;;;;;;15.41;65.41;101021.44;7346409;19;20045;-53
2022/07/28 06:44:52;;;;;;;0.95;0.70;;;;;;;15.43;65.31;101024.66;7396093;19;20014;-51
2022/07/28 06:47:26;;;;;;;1.23;0.70;;;;;;;15.45;65.26;101028.66;7394689;19;20014;-50
2022/07/28 06:53:22;;;;;;;0.50;0.50;;;;;;;15.54;65.19;101025.69;7397812;19;20113;-54
2022/07/28 06:56:10;;;;;;;2.50;0.50;;;;;;;15.55;65.15;101030.88;7398091;19;20014;-54
2022/07/28 06:59:03;;;;;;;1.10;0.30;;;;;;;15.57;64.84;101025.72;7397547;19;20028;-52
2022/07/28 07:01:51;;;;;;;0.50;0.50;;;;;;;15.57;64.86;101028.50;7404938;19;20003;-51
2022/07/28 07:04:39;;;;;;;1.35;0.40;;;;;;;15.59;64.77;101028.97;7402993;19;20313;-51
2022/07/28 07:07:27;;;;;;;0.30;0.30;;;;;;;15.66;64.73;101036.63;7403903;19;20062;-51
2022/07/28 07:10:15;;;;;;;0.45;0.45;;;;;;;15.70;64.54;101031.94;7404945;19;20019;-50
2022/07/28 07:13:03;;;;;;;0.60;0.50;;;;;;;15.76;64.71;101033.22;7406100;19;20011;-51
2022/07/28 07:15:51;;;;;;;0.80;0.55;;;;;;;15.83;64.66;101027.78;7402755;19;20025;-53
2022/07/28 07:18:39;;;;;;;1.15;0.38;;;;;;;15.91;64.45;101032.28;7404523;19;20022;-51
2022/07/28 07:21:26;;;;;;;0.70;0.40;;;;;;;15.95;64.25;101035.94;7402949;19;20026;-53
2022/07/28 07:24:17;;;;;;;0.60;0.52;;;;;;;15.99;64.21;101034.00;7399557;19;20328;-50
2022/07/28 07:26:48;;;;;;;0.43;0.40;;;;;;;16.11;64.15;101036.59;7399625;19;20010;-52
2022/07/28 07:29:21;;;;;;;0.80;0.60;;;;;;;16.20;64.29;101025.94;7400201;19;20495;-52
2022/07/28 07:31:49;;;;;;;1.33;0.73;;;;;;;16.27;64.22;101031.66;7398627;19;20037;-52
2022/07/28 07:34:22;;;;;;;2.03;1.38;;;;;;;16.33;63.59;101030.16;7402714;19;20018;-51
2022/07/28 07:36:49;;;;;;;2.40;0.57;;;;;;;16.38;63.53;101034.59;7402609;19;20486;-49
2022/07/28 07:39:20;;;;;;;0.77;0.60;;;;;;;16.42;63.46;101030.66;7398146;19;20347;-49
2022/07/28 07:41:47;;;;;;;1.85;0.70;;;;;;;16.46;63.63;101033.53;7402148;19;20010;-50
2022/07/28 07:44:15;;;;;;;1.90;0.50;;;;;;;16.42;63.30;101027.88;7400022;19;20007;-48
2022/07/28 07:46:46;;;;;;;1.42;0.50;;;;;;;16.39;62.88;101019.44;7397953;19;20018;-51
2022/07/28 07:49:17;;;;;;;1.02;0.65;;;;;;;16.42;63.16;101027.88;7396965;19;20041;-53
2022/07/28 07:51:45;;;;;;;0.32;0.32;;;;;;;16.39;63.08;101022.22;7398758;19;20051;-50
2022/07/28 07:54:12;;;;;;;2.42;0.90;;;;;;;16.37;63.11;101033.78;7394362;19;20019;-52
2022/07/28 07:56:41;;;;;;;0.90;0.80;;;;;;;16.44;63.34;101030.31;7405902;19;20019;-54
2022/07/28 07:59:08;;;;;;;1.05;0.95;;;;;;;16.58;63.80;101030.50;7399458;19;20376;-55
2022/07/28 08:01:36;;;;;;;0.60;0.40;;;;;;;16.78;63.75;101032.00;7393193;19;20032;-52
2022/07/28 08:04:06;;;;;;;4.65;0.95;;;;;;;16.95;64.04;101036.19;7399623;19;20015;-50
2022/07/28 08:06:34;;;;;;;1.85;0.50;;;;;;;17.05;63.92;101032.69;7396138;19;20041;-53
2022/07/28 08:09:02;;;;;;;1.08;0.68;;;;;;;17.11;63.60;101035.97;7396090;19;20011;-50
2022/07/28 08:11:29;;;;;;;0.65;0.60;;;;;;;17.20;63.74;101034.50;7401226;19;20010;-48
2022/07/28 08:13:57;;;;;;;0.80;0.75;;;;;;;17.31;63.69;101035.41;7396809;19;20503;-50
2022/07/28 08:16:24;;;;;;;0.85;0.60;;;;;;;17.44;63.21;101033.94;7398543;19;20014;-51
2022/07/28 08:18:52;;;;;;;2.20;0.95;;;;;;;17.51;62.79;101028.41;7400307;19;20006;-51
2022/07/28 08:21:20;;;;;;;3.10;0.80;;;;;;;17.57;63.16;101032.50;7397081;19;20014;-50
2022/07/28 08:23:49;;;;;;;1.73;0.60;;;;;;;17.53;62.93;101042.03;7396031;19;20015;-51
2022/07/28 08:26:16;;;;;;;2.55;1.05;;;;;;;17.55;63.25;101037.66;7401249;19;20003;-50
2022/07/28 08:28:44;;;;;;;3.55;0.85;;;;;;;17.60;63.34;101039.34;7397313;19;20462;-48
2022/07/28 08:31:20;;;;;;;3.35;0.85;;;;;;;17.60;63.35;101037.34;7395033;19;20018;-49
2022/07/28 08:33:51;;;;;;;1.55;0.63;;;;;;;17.66;63.36;101042.59;7390859;19;20014;-59
2022/07/28 08:36:21;;;;;;;2.00;1.20;;;;;;;17.71;63.27;101033.84;7395570;19;20011;-52
2022/07/28 08:38:50;;;;;;;2.33;0.73;;;;;;;17.74;63.12;101042.25;7396528;19;20370;-50
2022/07/28 08:41:37;;;;;;;2.78;1.20;;;;;;;17.81;63.12;101038.72;7393338;19;20011;-53
2022/07/28 08:44:36;;;;;;;3.20;0.88;;;;;;;17.80;63.42;101039.91;7389547;19;20014;-51
2022/07/28 08:47:08;;;;;;;0.90;0.70;;;;;;;17.76;63.52;101039.06;7400111;19;20063;-50
2022/07/28 08:49:39;;;;;;;1.08;0.98;;;;;;;17.74;63.28;101030.25;7400593;19;20006;-50
2022/07/28 08:52:12;;;;;;;2.38;0.73;;;;;;;17.68;63.45;101038.22;7396233;19;20017;-54
2022/07/28 08:54:43;;;;;;;4.32;0.90;;;;;;;17.68;63.44;101034.59;7397367;19;20110;-51
2022/07/28 08:57:32;;;;;;;2.03;0.98;;;;;;;17.64;63.44;101032.56;7397955;19;20003;-51
2022/07/28 09:00:21;;;;;;;1.30;1.05;;;;;;;17.71;63.30;101031.03;7394083;19;20094;-51
2022/07/28 09:02:50;;;;;;;4.63;1.30;;;;;;;17.83;63.47;101023.13;7395636;19;20003;-48
2022/07/28 09:05:20;;;;;;;3.70;0.90;;;;;;;17.89;63.22;101026.38;7396721;19;20025;-52
2022/07/28 09:07:49;;;;;;;2.55;0.88;;;;;;;17.97;63.07;101023.25;7398487;19;20474;-51
2022/07/28 09:10:21;;;;;;;1.88;0.70;;;;;;;18.04;62.99;101016.88;7399407;19;20017;-52
2022/07/28 09:12:50;;;;;;;0.93;0.60;;;;;;;18.04;63.22;101030.91;7399034;19;20468;-55
2022/07/28 09:15:19;;;;;;;2.55;0.77;;;;;;;18.04;63.09;101022.50;7396966;19;20011;-65
2022/07/28 09:17:46;;;;;;;2.47;0.88;;;;;;;18.04;62.84;101017.69;7395843;19;20010;-47
2022/07/28 09:20:19;;;;;;;2.25;0.75;;;;;;;18.03;62.81;101015.28;7399064;19;20014;-49
2022/07/28 09:26:16;;;;;;;3.17;0.90;;;;;;;18.10;63.01;101015.34;7394717;19;20348;-51
2022/07/28 09:29:06;;;;;;;3.53;1.23;;;;;;;18.17;63.05;101004.97;7396649;19;20566;-53
2022/07/28 09:31:54;;;;;;;1.58;1.05;;;;;;;18.16;63.21;101002.56;7395429;19;20037;-49
2022/07/28 09:34:46;;;;;;;1.38;0.80;;;;;;;18.25;63.14;101008.63;7398849;19;20482;-50
2022/07/28 09:37:38;;;;;;;3.80;1.05;;;;;;;18.38;63.12;100995.06;7396908;19;20018;-50
2022/07/28 09:40:26;;;;;;;1.45;0.82;;;;;;;18.49;62.77;101001.59;7396578;19;20482;-51
2022/07/28 09:43:14;;;;;;;3.65;0.63;;;;;;;19.04;63.13;101002.22;7392627;19;20014;-49
2022/07/28 09:46:23;;;;;;;1.00;0.85;;;;;;;19.40;60.44;100992.72;7395483;19;20018;-52
2022/07/28 09:48:53;;;;;;;1.95;1.23;;;;;;;19.48;61.77;101005.56;7389332;19;20014;-50
2022/07/28 09:51:23;;;;;;;2.17;0.73;;;;;;;19.45;61.08;101003.56;7391817;19;20007;-52
2022/07/28 09:53:51;;;;;;;1.67;0.90;;;;;;;19.44;60.86;101002.75;7396161;19;20110;-49
2022/07/28 09:56:22;;;;;;;3.35;0.75;;;;;;;19.60;60.89;100996.75;7392908;19;20018;-53
2022/07/28 09:58:55;;;;;;;3.13;1.10;;;;;;;19.65;60.35;101001.94;7391500;19;20021;-49
2022/07/28 10:01:25;;;;;;;1.00;0.80;;;;;;;19.40;59.94;101001.13;7397514;19;20368;-52
2022/07/28 10:04:02;;;;;;;1.80;1.15;;;;;;;19.37;59.64;100996.28;7390663;19;20344;-48
2022/07/28 10:06:32;;;;;;;1.88;1.02;;;;;;;19.52;59.95;101006.34;7397471;19;20007;-53
2022/07/28 10:09:01;;;;;;;3.78;1.60;;;;;;;19.54;59.50;101003.94;7395911;19;20002;-47
2022/07/28 10:11:29;;;;;;;2.17;1.00;;;;;;;19.56;59.90;101001.56;7397457;19;20006;-50
2022/07/28 10:25:25;;;;;;;11.80;2.67;;;;;;;20.96;57.79;101004.53;7384470;19;20030;-49
2022/07/28 10:27:58;;;;;;;6.22;1.42;;;;;;;21.38;56.89;101000.69;7391850;19;20006;-50
2022/07/28 10:30:33;;;;;;;4.40;1.90;;;;;;;21.24;56.92;101001.56;7395852;19;20045;-49
2022/07/28 10:33:24;;;;;;;1.00;0.90;;;;;;;21.09;57.06;101002.88;7395998;19;20022;-49
2022/07/28 10:36:13;;;;;;;1.40;1.20;;;;;;;20.94;56.96;101007.72;7403869;19;20011;-50
2022/07/28 10:39:12;;;;;;;1.98;1.30;;;;;;;20.78;56.49;101009.44;7404941;19;20037;-53
2022/07/28 10:42:00;;;;;;;3.38;1.15;;;;;;;20.64;56.77;101004.66;7403379;19;20022;-53
2022/07/28 10:55:43;;;;;;;4.07;2.40;;;;;;;19.83;58.53;101011.19;7393840;19;20021;-57
2022/07/28 10:58:39;;;;;;;5.45;1.20;;;;;;;20.12;58.49;101014.00;7402978;19;20041;-50
2022/07/28 11:01:37;;;;;;;3.55;1.13;;;;;;;20.24;58.15;101002.34;7399919;19;20028;-49
2022/07/28 11:04:50;;;;;;;4.60;1.80;;;;;;;20.58;57.97;101017.53;7397781;19;20006;-51
2022/07/28 11:07:21;;;;;;;8.88;1.50;;;;;;;20.65;58.16;101017.53;7401315;19;20002;-55
2022/07/28 11:09:49;;;;;;;2.00;0.90;;;;;;;20.78;58.29;101018.69;7399837;19;20014;-50
2022/07/28 11:12:55;;;;;;;3.63;1.20;;;;;;;20.80;57.01;101019.06;7403211;19;20369;-53
2022/07/28 11:15:30;;;;;;;5.97;1.10;;;;;;;20.74;58.11;101023.50;7399505;19;20018;-51
2022/07/28 11:18:01;;;;;;;1.17;1.00;;;;;;;20.67;58.03;101019.91;7403203;19;20423;-50
2022/07/28 11:20:49;;;;;;;1.98;1.15;;;;;;;20.79;57.84;101022.28;7403645;19;20167;-57
2022/07/28 11:23:52;;;;;;;5.95;1.25;;;;;;;20.75;56.96;101016.69;7397156;19;20033;-48
2022/07/28 11:26:43;;;;;;;4.30;1.10;;;;;;;20.59;57.18;101010.69;7402705;19;20022;-52
2022/07/28 11:29:44;;;;;;;2.22;1.25;;;;;;;20.47;57.56;101011.94;7400622;19;20021;-51
2022/07/28 11:36:00;;;;;;;2.63;1.13;;;;;;;20.82;57.60;101005.38;7403158;19;20022;-52
2022/07/28 11:39:25;;;;;;;3.83;1.30;;;;;;;20.88;57.01;101003.75;7393540;19;20018;-48
2022/07/28 11:41:52;;;;;;;2.67;1.05;;;;;;;20.95;56.94;101003.72;7398686;19;20017;-50
2022/07/28 11:44:27;;;;;;;2.08;0.77;;;;;;;21.07;56.50;100994.84;7401758;19;20019;-51
2022/07/28 11:47:25;;;;;;;3.95;1.05;;;;;;;21.19;56.16;100996.38;7396460;19;20340;-53
2022/07/28 11:50:13;;;;;;;3.00;1.00;;;;;;;21.27;55.01;100992.31;7396866;19;20026;-51
2022/07/28 11:52:55;;;;;;;2.75;1.02;;;;;;;21.12;55.07;100988.78;7401426;19;20076;-51
2022/07/28 11:55:23;;;;;;;7.38;1.25;;;;;;;21.22;55.73;100999.19;7399780;19;20014;-49
2022/07/28 11:58:24;;;;;;;3.90;1.60;;;;;;;21.54;55.62;100989.72;7401720;19;20015;-51
2022/07/28 12:15:36;;;;;;;1.42;1.33;;;;;;;21.52;54.57;100997.78;7394176;19;20077;-52
2022/07/28 12:18:24;;;;;;;2.65;0.85;;;;;;;21.53;54.76;100993.72;7399233;19;20010;-48
2022/07/28 12:20:53;;;;;;;3.15;1.08;;;;;;;21.77;54.67;100987.09;7398674;19;20472;-51
2022/07/28 12:23:28;;;;;;;6.03;0.80;;;;;;;22.02;53.60;100990.53;7393857;19;20010;-50
2022/07/28 12:26:29;;;;;;;1.98;0.70;;;;;;;22.12;51.51;100998.09;7392782;19;20350;-51
2022/07/28 12:28:59;;;;;;;5.28;0.93;;;;;;;22.19;52.89;100997.19;7398786;19;20030;-51
2022/07/28 12:31:29;;;;;;;2.90;0.80;;;;;;;22.28;53.18;100995.50;7372643;19;20349;-49
2022/07/28 12:34:05;;;;;;;2.42;1.00;;;;;;;22.39;52.89;100993.38;7390347;19;20082;-49
2022/07/28 12:36:33;;;;;;;2.47;1.02;;;;;;;22.52;52.98;100996.47;7399600;19;20017;-50
2022/07/28 12:39:02;;;;;;;13.55;1.77;;;;;;;22.68;52.98;100993.06;7402084;19;20018;-52
2022/07/28 12:41:34;;;;;;;1.63;1.17;;;;;;;22.65;52.34;100993.91;7360953;19;20460;-53
2022/07/28 12:44:04;;;;;;;2.50;0.88;;;;;;;22.79;52.32;100993.75;7398174;19;20077;-51
2022/07/28 12:46:33;;;;;;;2.22;0.88;;;;;;;22.78;52.37;100995.78;7395750;19;20010;-54
2022/07/28 12:49:02;;;;;;;8.05;0.90;;;;;;;22.56;51.79;100999.25;7389681;19;20026;-52
2022/07/28 12:51:37;;;;;;;2.65;0.70;;;;;;;22.28;51.14;100984.22;7395493;19;20006;-52
2022/07/28 12:54:07;;;;;;;0.70;0.70;;;;;;;22.32;51.88;100979.34;7397822;19;20003;-49
2022/07/28 12:56:54;;;;;;;2.70;0.80;;;;;;;22.56;49.49;100985.13;7398345;19;20117;-52
2022/07/28 12:59:45;;;;;;;2.17;0.90;;;;;;;22.87;50.93;100978.31;7400642;19;20011;-51
2022/07/28 13:02:16;;;;;;;2.35;0.65;;;;;;;23.05;50.63;100993.00;7399417;19;20479;-56
2022/07/28 13:04:48;;;;;;;3.20;0.93;;;;;;;23.19;50.57;100981.50;7394968;19;20022;-49
2022/07/28 13:07:19;;;;;;;3.00;1.10;;;;;;;22.91;50.33;100987.53;7395315;19;20033;-48
2022/07/28 13:09:49;;;;;;;3.97;0.98;;;;;;;22.86;50.86;100985.19;7398332;19;20518;-49
2022/07/28 13:12:29;;;;;;;0.85;0.82;;;;;;;22.60;51.00;100983.06;7400883;19;20472;-48
2022/07/28 13:14:59;;;;;;;4.20;0.77;;;;;;;22.43;51.34;100980.03;7399663;19;20018;-49
2022/07/28 13:17:51;;;;;;;1.73;0.88;;;;;;;22.25;51.14;100978.63;7397910;19;20011;-51
2022/07/28 13:20:19;;;;;;;1.60;0.88;;;;;;;22.26;51.18;100981.03;7397265;19;20031;-51
2022/07/28 13:22:47;;;;;;;2.88;1.23;;;;;;;22.15;51.40;100988.78;7395258;19;20011;-52
2022/07/28 13:25:15;;;;;;;2.55;0.93;;;;;;;22.00;51.79;100989.34;7397053;19;20007;-50
2022/07/28 13:42:22;;;;;;;3.92;1.10;;;;;;;21.82;51.83;100983.81;7398549;19;20007;-49
2022/07/28 13:45:10;;;;;;;9.43;2.15;;;;;;;21.83;52.53;100985.44;7393850;19;20011;-52
2022/07/28 13:48:04;;;;;;;3.10;1.23;;;;;;;21.93;52.22;100990.22;7391550;19;20014;-48
2022/07/28 13:50:54;;;;;;;1.55;0.85;;;;;;;21.90;52.45;100990.22;7396547;19;20006;-52
2022/07/28 13:53:21;;;;;;;6.22;1.50;;;;;;;22.02;52.53;100982.09;7396034;19;20467;-48
2022/07/28 13:55:51;;;;;;;2.20;1.38;;;;;;;22.06;52.60;100979.22;7396506;19;20490;-51
2022/07/28 13:58:21;;;;;;;2.55;1.27;;;;;;;21.99;52.45;100982.09;7396050;19;20022;-48
2022/07/28 14:00:57;;;;;;;2.10;1.08;;;;;;;22.02;52.93;100982.09;7396441;19;20504;-50
2022/07/28 14:03:35;;;;;;;1.42;1.27;;;;;;;21.87;53.61;100991.09;7398719;19;20010;-48
2022/07/28 14:06:22;;;;;;;2.60;1.38;;;;;;;21.91;53.72;100998.28;7396129;19;20010;-51
2022/07/28 14:08:50;;;;;;;2.63;1.40;;;;;;;21.89;53.53;100995.09;7400758;19;20440;-50
2022/07/28 14:11:19;;;;;;;2.95;1.77;;;;;;;21.96;53.61;100997.03;7409199;19;20066;-48
2022/07/28 14:13:46;;;;;;;3.25;1.67;;;;;;;21.95;53.56;100992.63;7411773;19;20043;-53
2022/07/28 14:16:15;;;;;;;3.60;1.55;;;;;;;22.10;53.69;100994.91;7409591;19;20030;-50
2022/07/28 14:18:47;;;;;;;2.55;1.20;;;;;;;22.18;53.40;101004.09;7412589;19;20007;-48
2022/07/28 14:21:18;;;;;;;4.35;1.63;;;;;;;22.22;52.91;101000.00;7411634;19;20035;-52